Morro Bay, CA

12:07 AM PDT on April 25, 2015 (GMT -0700)
Santa Maria Public Airport / Captain G. Allan Hancock Field | | Change Station
CLOSE
Current Station
Airport
Location: Santa Maria,
Elevation: 240 ft
Nearby Weather Stations

Elev 240 ft 34.90 °N, 120.45 °W | Updated 16 minutes ago

Mostly Cloudy
Mostly Cloudy
54 °F
Feels Like 54 °F
N
7
Wind Variable Wind from West

Today
High -- | Low -- °F
--% Chance of Precip.
Yesterday
High -- | Low -- °F
Precip. -- in
6:18 AM 7:44 PM
Waxing Crescent, 43% visible
Pressure 30.06 in
Visibility 8.0 miles
Clouds Mostly Cloudy 1400 ft
Overcast 1800 ft
Dew Point 49 °F
Humidity 83%
Rainfall 0.00 in
Snow Depth Not available.
UV 0 out of 12
Pollen 7.80 out of 12
Air Quality Not available.
Flu Activity Sporadic
METAR KSMX 250651Z AUTO 28006KT 8SM BKN014 OVC018 12/09 A3005 RMK AO2 SLP179 T01220094 TSNO

More Conditions Fewer Conditions

Pressure 30.06 in
Visibility 8.0 miles
Clouds Mostly Cloudy 1400 ft
Overcast 1800 ft
Dew Point 49 °F
Humidity 83%
Rainfall 0.00 in
Snow Depth Not available.
UV 0 out of 12
Pollen 7.80 out of 12
Air Quality Not available.
Flu Activity Sporadic
METAR KSMX 250651Z AUTO 28006KT 8SM BKN014 OVC018 12/09 A3005 RMK AO2 SLP179 T01220094 TSNO

More Conditions Fewer Conditions

10-Day Weather Forecast

Almanac

Astronomy

Apr. 25, 2015 Rise Set
Actual Time
Civil Twilight
Nautical Twilight
Astronomical Twilight
Moon
Length of Visible Light
Length of Day
Tomorrow will be .
, % of the Moon is Illuminated

Today's Extremes

State Highs State Lows

Community

WunderPhotos

Upload Photos

1,816,624 photos uploaded!

WunderBlogs® & News

Nearby

Air Quality

  Air Quality AQ Index Pollutant
Not available.

Snow Depth

Station Depth Elevation

Earthquake Activity

City Distance Mag. Time & Date
Minimum magnitude displayed is 2.5.

Coastal Water Temperatures

Place Temperature

Stations

Nearby Weather Stations

Station Location Temp. Windchill Dew Point Humidity Wind Precip. Elev Updated Type